sensor_id;sensor_type;location;lat;lon;timestamp;pressure;altitude;pressure_sealevel;temperature;humidity
77118;BME280;66072;50.238;19.228;2024-03-07T00:01:56;99036.28;;;2.81;100.00
77118;BME280;66072;50.238;19.228;2024-03-07T00:04:24;99036.64;;;2.79;100.00
77118;BME280;66072;50.238;19.228;2024-03-07T00:06:52;99036.98;;;2.78;100.00
77118;BME280;66072;50.238;19.228;2024-03-07T00:09:19;99036.83;;;2.77;100.00
77118;BME280;66072;50.238;19.228;2024-03-07T00:11:47;99039.87;;;2.76;100.00
77118;BME280;66072;50.238;19.228;2024-03-07T00:14:15;99038.50;;;2.75;100.00
77118;BME280;66072;50.238;19.228;2024-03-07T00:16:43;99034.13;;;2.74;100.00
77118;BME280;66072;50.238;19.228;2024-03-07T00:19:10;99034.30;;;2.74;100.00
77118;BME280;66072;50.238;19.228;2024-03-07T00:21:38;99036.66;;;2.75;100.00
77118;BME280;66072;50.238;19.228;2024-03-07T00:24:06;99033.80;;;2.73;100.00
77118;BME280;66072;50.238;19.228;2024-03-07T00:26:34;99035.16;;;2.72;100.00
77118;BME280;66072;50.238;19.228;2024-03-07T00:29:01;99033.14;;;2.71;100.00
77118;BME280;66072;50.238;19.228;2024-03-07T00:31:29;99033.31;;;2.71;100.00
77118;BME280;66072;50.238;19.228;2024-03-07T00:33:57;99029.60;;;2.69;100.00
77118;BME280;66072;50.238;19.228;2024-03-07T00:36:40;99027.73;;;2.69;100.00
77118;BME280;66072;50.238;19.228;2024-03-07T00:39:08;99026.05;;;2.68;100.00
77118;BME280;66072;50.238;19.228;2024-03-07T00:41:36;99025.21;;;2.67;100.00
77118;BME280;66072;50.238;19.228;2024-03-07T00:44:04;99028.95;;;2.66;100.00
77118;BME280;66072;50.238;19.228;2024-03-07T00:46:32;99027.10;;;2.65;100.00
77118;BME280;66072;50.238;19.228;2024-03-07T00:48:59;99027.09;;;2.63;100.00
77118;BME280;66072;50.238;19.228;2024-03-07T00:51:27;99023.06;;;2.61;100.00
77118;BME280;66072;50.238;19.228;2024-03-07T00:53:55;99024.94;;;2.59;100.00
77118;BME280;66072;50.238;19.228;2024-03-07T00:56:23;99026.96;;;2.60;100.00
77118;BME280;66072;50.238;19.228;2024-03-07T00:58:51;99027.13;;;2.60;100.00
77118;BME280;66072;50.238;19.228;2024-03-07T01:01:19;99025.10;;;2.60;100.00
77118;BME280;66072;50.238;19.228;2024-03-07T01:03:47;99026.14;;;2.58;100.00
77118;BME280;66072;50.238;19.228;2024-03-07T01:06:15;99024.10;;;2.58;100.00
77118;BME280;66072;50.238;19.228;2024-03-07T01:08:42;99023.58;;;2.57;100.00
77118;BME280;66072;50.238;19.228;2024-03-07T01:11:10;99019.71;;;2.58;100.00
77118;BME280;66072;50.238;19.228;2024-03-07T01:13:39;99019.87;;;2.57;100.00
77118;BME280;66072;50.238;19.228;2024-03-07T01:16:07;99021.08;;;2.55;100.00
77118;BME280;66072;50.238;19.228;2024-03-07T01:18:35;99021.73;;;2.55;100.00
77118;BME280;66072;50.238;19.228;2024-03-07T01:21:04;99016.50;;;2.55;100.00
77118;BME280;66072;50.238;19.228;2024-03-07T01:23:32;99014.98;;;2.55;100.00
77118;BME280;66072;50.238;19.228;2024-03-07T01:26:00;99013.13;;;2.55;100.00
77118;BME280;66072;50.238;19.228;2024-03-07T01:28:28;99017.86;;;2.55;100.00
77118;BME280;66072;50.238;19.228;2024-03-07T01:30:59;99013.65;;;2.54;100.00
77118;BME280;66072;50.238;19.228;2024-03-07T01:33:27;99014.50;;;2.54;100.00
77118;BME280;66072;50.238;19.228;2024-03-07T01:35:54;99013.30;;;2.55;100.00
77118;BME280;66072;50.238;19.228;2024-03-07T01:38:22;99012.63;;;2.55;100.00
77118;BME280;66072;50.238;19.228;2024-03-07T01:40:50;99010.41;;;2.57;100.00
77118;BME280;66072;50.238;19.228;2024-03-07T01:43:18;99007.21;;;2.59;100.00
77118;BME280;66072;50.238;19.228;2024-03-07T01:45:53;99007.89;;;2.59;100.00
77118;BME280;66072;50.238;19.228;2024-03-07T01:48:26;99008.39;;;2.59;100.00
77118;BME280;66072;50.238;19.228;2024-03-07T01:50:55;99006.02;;;2.58;100.00
77118;BME280;66072;50.238;19.228;2024-03-07T01:53:25;99009.23;;;2.57;100.00
77118;BME280;66072;50.238;19.228;2024-03-07T01:55:54;99009.24;;;2.59;100.00
77118;BME280;66072;50.238;19.228;2024-03-07T01:58:22;99009.91;;;2.59;100.00
77118;BME280;66072;50.238;19.228;2024-03-07T02:00:51;99007.04;;;2.58;100.00
77118;BME280;66072;50.238;19.228;2024-03-07T02:03:19;99004.50;;;2.57;100.00
77118;BME280;66072;50.238;19.228;2024-03-07T02:05:47;99004.51;;;2.56;100.00
77118;BME280;66072;50.238;19.228;2024-03-07T02:08:15;99004.34;;;2.57;100.00
77118;BME280;66072;50.238;19.228;2024-03-07T02:10:43;98999.79;;;2.58;100.00
77118;BME280;66072;50.238;19.228;2024-03-07T02:13:10;99001.30;;;2.57;100.00
77118;BME280;66072;50.238;19.228;2024-03-07T02:15:38;98996.92;;;2.55;100.00
77118;BME280;66072;50.238;19.228;2024-03-07T02:18:06;98996.59;;;2.54;100.00
77118;BME280;66072;50.238;19.228;2024-03-07T02:20:34;98995.08;;;2.54;100.00
77118;BME280;66072;50.238;19.228;2024-03-07T02:23:03;98991.54;;;2.53;100.00
77118;BME280;66072;50.238;19.228;2024-03-07T02:25:31;98993.74;;;2.50;100.00
77118;BME280;66072;50.238;19.228;2024-03-07T02:27:58;98993.58;;;2.50;100.00
77118;BME280;66072;50.238;19.228;2024-03-07T02:30:26;98994.75;;;2.51;100.00
77118;BME280;66072;50.238;19.228;2024-03-07T02:32:54;98992.39;;;2.52;100.00
77118;BME280;66072;50.238;19.228;2024-03-07T02:35:23;98992.55;;;2.52;100.00
77118;BME280;66072;50.238;19.228;2024-03-07T02:37:51;98991.02;;;2.51;100.00
77118;BME280;66072;50.238;19.228;2024-03-07T02:40:19;98992.73;;;2.50;100.00
77118;BME280;66072;50.238;19.228;2024-03-07T02:42:47;98994.77;;;2.49;100.00
77118;BME280;66072;50.238;19.228;2024-03-07T02:45:15;98996.11;;;2.49;100.00
77118;BME280;66072;50.238;19.228;2024-03-07T02:47:43;98992.08;;;2.48;100.00
77118;BME280;66072;50.238;19.228;2024-03-07T02:50:11;98993.45;;;2.46;100.00
77118;BME280;66072;50.238;19.228;2024-03-07T02:52:39;98994.45;;;2.47;100.00
77118;BME280;66072;50.238;19.228;2024-03-07T02:55:07;98993.44;;;2.46;100.00
77118;BME280;66072;50.238;19.228;2024-03-07T02:57:35;98993.94;;;2.45;100.00
77118;BME280;66072;50.238;19.228;2024-03-07T03:00:03;98995.80;;;2.44;100.00
77118;BME280;66072;50.238;19.228;2024-03-07T03:02:31;98994.11;;;2.44;100.00
77118;BME280;66072;50.238;19.228;2024-03-07T03:04:58;98993.25;;;2.45;100.00
77118;BME280;66072;50.238;19.228;2024-03-07T03:07:27;98997.81;;;2.45;100.00
77118;BME280;66072;50.238;19.228;2024-03-07T03:09:54;98994.45;;;2.43;100.00
77118;BME280;66072;50.238;19.228;2024-03-07T03:12:22;98995.13;;;2.42;100.00
77118;BME280;66072;50.238;19.228;2024-03-07T03:14:50;98995.96;;;2.44;100.00
77118;BME280;66072;50.238;19.228;2024-03-07T03:17:17;98997.98;;;2.45;100.00
77118;BME280;66072;50.238;19.228;2024-03-07T03:19:45;98997.81;;;2.45;100.00
77118;BME280;66072;50.238;19.228;2024-03-07T03:22:13;98997.31;;;2.45;100.00
77118;BME280;66072;50.238;19.228;2024-03-07T03:24:41;98997.48;;;2.44;100.00
77118;BME280;66072;50.238;19.228;2024-03-07T03:27:08;98999.19;;;2.42;100.00
77118;BME280;66072;50.238;19.228;2024-03-07T03:29:36;98997.35;;;2.39;100.00
77118;BME280;66072;50.238;19.228;2024-03-07T03:32:04;98994.82;;;2.37;100.00
77118;BME280;66072;50.238;19.228;2024-03-07T03:34:32;98990.95;;;2.36;100.00
77118;BME280;66072;50.238;19.228;2024-03-07T03:37:00;98991.80;;;2.35;100.00
77118;BME280;66072;50.238;19.228;2024-03-07T03:39:27;98991.45;;;2.36;100.00
77118;BME280;66072;50.238;19.228;2024-03-07T03:41:55;98992.64;;;2.36;100.00
77118;BME280;66072;50.238;19.228;2024-03-07T03:44:23;98990.78;;;2.36;100.00
77118;BME280;66072;50.238;19.228;2024-03-07T03:46:51;98992.63;;;2.36;99.98
77118;BME280;66072;50.238;19.228;2024-03-07T03:49:19;98993.82;;;2.35;99.83
77118;BME280;66072;50.238;19.228;2024-03-07T03:51:47;98991.98;;;2.33;99.66
77118;BME280;66072;50.238;19.228;2024-03-07T03:54:15;98996.89;;;2.29;99.57
77118;BME280;66072;50.238;19.228;2024-03-07T03:56:43;98999.94;;;2.28;99.48
77118;BME280;66072;50.238;19.228;2024-03-07T03:59:10;99003.31;;;2.27;99.42
77118;BME280;66072;50.238;19.228;2024-03-07T04:01:38;99004.67;;;2.28;99.43
77118;BME280;66072;50.238;19.228;2024-03-07T04:04:06;99001.97;;;2.28;99.43
77118;BME280;66072;50.238;19.228;2024-03-07T04:06:34;99010.23;;;2.26;98.94
77118;BME280;66072;50.238;19.228;2024-03-07T04:09:02;99010.25;;;2.24;98.78
77118;BME280;66072;50.238;19.228;2024-03-07T04:11:30;99010.93;;;2.22;98.87
77118;BME280;66072;50.238;19.228;2024-03-07T04:13:57;99013.98;;;2.21;98.77
77118;BME280;66072;50.238;19.228;2024-03-07T04:16:25;99018.52;;;2.20;98.84
77118;BME280;66072;50.238;19.228;2024-03-07T04:18:53;99017.34;;;2.19;98.82
77118;BME280;66072;50.238;19.228;2024-03-07T04:21:21;99012.98;;;2.18;98.75
77118;BME280;66072;50.238;19.228;2024-03-07T04:23:48;99016.35;;;2.18;98.83
77118;BME280;66072;50.238;19.228;2024-03-07T04:26:16;99015.34;;;2.18;98.65
77118;BME280;66072;50.238;19.228;2024-03-07T04:28:44;99018.21;;;2.16;98.47
77118;BME280;66072;50.238;19.228;2024-03-07T04:31:12;99016.52;;;2.15;98.69
77118;BME280;66072;50.238;19.228;2024-03-07T04:33:40;99022.09;;;2.13;98.37
77118;BME280;66072;50.238;19.228;2024-03-07T04:36:08;99024.30;;;2.10;98.21
77118;BME280;66072;50.238;19.228;2024-03-07T04:38:35;99022.11;;;2.07;98.20
77118;BME280;66072;50.238;19.228;2024-03-07T04:41:03;99025.84;;;2.03;97.94
77118;BME280;66072;50.238;19.228;2024-03-07T04:43:31;99024.16;;;2.01;98.09
77118;BME280;66072;50.238;19.228;2024-03-07T04:45:59;99026.54;;;1.99;98.11
77118;BME280;66072;50.238;19.228;2024-03-07T04:48:27;99027.73;;;1.96;97.88
77118;BME280;66072;50.238;19.228;2024-03-07T04:50:55;99029.92;;;1.95;97.94
77118;BME280;66072;50.238;19.228;2024-03-07T04:53:22;99034.66;;;1.92;97.81
77118;BME280;66072;50.238;19.228;2024-03-07T04:55:50;99036.85;;;1.91;97.86
77118;BME280;66072;50.238;19.228;2024-03-07T04:58:18;99040.05;;;1.89;98.05
77118;BME280;66072;50.238;19.228;2024-03-07T05:00:46;99042.76;;;1.87;97.83
77118;BME280;66072;50.238;19.228;2024-03-07T05:03:13;99044.95;;;1.84;97.25
77118;BME280;66072;50.238;19.228;2024-03-07T05:05:41;99044.63;;;1.81;97.50
77118;BME280;66072;50.238;19.228;2024-03-07T05:08:09;99043.61;;;1.81;97.71
77118;BME280;66072;50.238;19.228;2024-03-07T05:10:37;99038.07;;;1.78;97.51
77118;BME280;66072;50.238;19.228;2024-03-07T05:13:05;99038.23;;;1.79;97.74
77118;BME280;66072;50.238;19.228;2024-03-07T05:15:32;99039.92;;;1.79;97.54
77118;BME280;66072;50.238;19.228;2024-03-07T05:18:01;99039.57;;;1.78;97.51
77118;BME280;66072;50.238;19.228;2024-03-07T05:20:30;99042.43;;;1.77;97.48
77118;BME280;66072;50.238;19.228;2024-03-07T05:22:57;99048.50;;;1.77;97.42
77118;BME280;66072;50.238;19.228;2024-03-07T05:25:25;99048.34;;;1.77;97.55
77118;BME280;66072;50.238;19.228;2024-03-07T05:27:53;99048.70;;;1.74;97.15
77118;BME280;66072;50.238;19.228;2024-03-07T05:30:21;99052.90;;;1.72;97.12
77118;BME280;66072;50.238;19.228;2024-03-07T05:32:48;99052.73;;;1.71;97.10
77118;BME280;66072;50.238;19.228;2024-03-07T05:35:16;99058.63;;;1.70;97.23
77118;BME280;66072;50.238;19.228;2024-03-07T05:37:48;99062.17;;;1.70;97.09
77118;BME280;66072;50.238;19.228;2024-03-07T05:40:16;99062.01;;;1.69;97.15
77118;BME280;66072;50.238;19.228;2024-03-07T05:42:44;99064.38;;;1.69;96.94
77118;BME280;66072;50.238;19.228;2024-03-07T05:45:12;99067.09;;;1.67;96.80
77118;BME280;66072;50.238;19.228;2024-03-07T05:47:39;99068.10;;;1.66;96.91
77118;BME280;66072;50.238;19.228;2024-03-07T05:50:07;99071.62;;;1.66;96.84
77118;BME280;66072;50.238;19.228;2024-03-07T05:52:35;99069.09;;;1.64;96.68
77118;BME280;66072;50.238;19.228;2024-03-07T05:55:04;99068.76;;;1.64;96.79
77118;BME280;66072;50.238;19.228;2024-03-07T05:57:32;99072.98;;;1.64;96.73
77118;BME280;66072;50.238;19.228;2024-03-07T05:59:59;99068.77;;;1.63;96.68
77118;BME280;66072;50.238;19.228;2024-03-07T06:02:27;99067.75;;;1.63;96.81
77118;BME280;66072;50.238;19.228;2024-03-07T06:04:55;99067.07;;;1.64;96.95
77118;BME280;66072;50.238;19.228;2024-03-07T06:07:23;99070.60;;;1.65;96.86
77118;BME280;66072;50.238;19.228;2024-03-07T06:09:50;99074.16;;;1.66;96.73
77118;BME280;66072;50.238;19.228;2024-03-07T06:12:18;99068.25;;;1.66;96.65
77118;BME280;66072;50.238;19.228;2024-03-07T06:14:54;99067.41;;;1.67;96.61
77118;BME280;66072;50.238;19.228;2024-03-07T06:17:22;99066.23;;;1.67;96.55
77118;BME280;66072;50.238;19.228;2024-03-07T06:19:50;99067.75;;;1.68;96.50
77118;BME280;66072;50.238;19.228;2024-03-07T06:22:17;99069.09;;;1.70;96.56
77118;BME280;66072;50.238;19.228;2024-03-07T06:24:45;99071.28;;;1.74;96.84
77118;BME280;66072;50.238;19.228;2024-03-07T06:27:13;99069.59;;;1.76;96.59
77118;BME280;66072;50.238;19.228;2024-03-07T06:29:41;99069.77;;;1.80;96.47
77118;BME280;66072;50.238;19.228;2024-03-07T06:32:09;99072.77;;;1.84;96.35
77118;BME280;66072;50.238;19.228;2024-03-07T06:34:36;99075.31;;;1.84;95.71
77118;BME280;66072;50.238;19.228;2024-03-07T06:37:04;99077.16;;;1.85;95.91
77118;BME280;66072;50.238;19.228;2024-03-07T06:39:32;99080.20;;;1.86;95.94
77118;BME280;66072;50.238;19.228;2024-03-07T06:42:00;99078.33;;;1.90;95.92
77118;BME280;66072;50.238;19.228;2024-03-07T06:44:28;99079.86;;;1.92;95.47
77118;BME280;66072;50.238;19.228;2024-03-07T06:46:56;99081.04;;;1.92;95.50
77118;BME280;66072;50.238;19.228;2024-03-07T06:49:24;99079.34;;;1.95;95.54
77118;BME280;66072;50.238;19.228;2024-03-07T06:51:51;99080.17;;;1.99;95.43
77118;BME280;66072;50.238;19.228;2024-03-07T06:54:19;99081.85;;;2.02;94.85
77118;BME280;66072;50.238;19.228;2024-03-07T06:56:47;99083.18;;;2.07;95.11
77118;BME280;66072;50.238;19.228;2024-03-07T06:59:15;99081.16;;;2.13;95.12
77118;BME280;66072;50.238;19.228;2024-03-07T07:01:42;99076.59;;;2.21;94.61
77118;BME280;66072;50.238;19.228;2024-03-07T07:04:11;99077.24;;;2.24;93.87
77118;BME280;66072;50.238;19.228;2024-03-07T07:06:38;99078.75;;;2.29;93.98
77118;BME280;66072;50.238;19.228;2024-03-07T07:09:06;99081.25;;;2.36;93.90
77118;BME280;66072;50.238;19.228;2024-03-07T07:11:34;99083.26;;;2.42;93.33
77118;BME280;66072;50.238;19.228;2024-03-07T07:14:02;99084.42;;;2.47;93.16
77118;BME280;66072;50.238;19.228;2024-03-07T07:16:30;99083.56;;;2.51;93.20
77118;BME280;66072;50.238;19.228;2024-03-07T07:18:58;99081.17;;;2.56;93.02
77118;BME280;66072;50.238;19.228;2024-03-07T07:21:25;99085.87;;;2.63;93.21
77118;BME280;66072;50.238;19.228;2024-03-07T07:23:53;99082.46;;;2.68;93.06
77118;BME280;66072;50.238;19.228;2024-03-07T07:26:21;99082.13;;;2.70;92.89
77118;BME280;66072;50.238;19.228;2024-03-07T07:28:49;99081.78;;;2.72;92.72
77118;BME280;66072;50.238;19.228;2024-03-07T07:31:17;99081.93;;;2.73;92.23
77118;BME280;66072;50.238;19.228;2024-03-07T07:33:45;99082.95;;;2.72;91.47
77118;BME280;66072;50.238;19.228;2024-03-07T07:36:12;99084.96;;;2.75;91.80
77118;BME280;66072;50.238;19.228;2024-03-07T07:38:40;99083.23;;;2.83;91.90
77118;BME280;66072;50.238;19.228;2024-03-07T07:41:08;99085.34;;;2.99;91.83
77118;BME280;66072;50.238;19.228;2024-03-07T07:43:36;99087.94;;;3.17;91.53
77118;BME280;66072;50.238;19.228;2024-03-07T07:46:10;99086.98;;;3.33;90.88
77118;BME280;66072;50.238;19.228;2024-03-07T07:48:38;99088.52;;;3.31;89.98
77118;BME280;66072;50.238;19.228;2024-03-07T07:51:06;99089.73;;;3.28;89.84
77118;BME280;66072;50.238;19.228;2024-03-07T07:53:34;99088.04;;;3.27;89.59
77118;BME280;66072;50.238;19.228;2024-03-07T07:56:03;99086.70;;;3.24;89.33
77118;BME280;66072;50.238;19.228;2024-03-07T07:58:30;99095.48;;;3.24;89.18
77118;BME280;66072;50.238;19.228;2024-03-07T08:00:58;99090.11;;;3.20;89.01
77118;BME280;66072;50.238;19.228;2024-03-07T08:03:26;99088.81;;;3.12;89.00
77118;BME280;66072;50.238;19.228;2024-03-07T08:05:54;99092.23;;;3.08;89.05
77118;BME280;66072;50.238;19.228;2024-03-07T08:08:22;99093.91;;;3.08;88.96
77118;BME280;66072;50.238;19.228;2024-03-07T08:10:50;99092.80;;;3.21;88.73
77118;BME280;66072;50.238;19.228;2024-03-07T08:13:18;99091.48;;;3.41;88.28
77118;BME280;66072;50.238;19.228;2024-03-07T08:15:46;99089.67;;;3.56;88.08
77118;BME280;66072;50.238;19.228;2024-03-07T08:18:14;99089.75;;;3.67;87.50
77118;BME280;66072;50.238;19.228;2024-03-07T08:20:41;99092.70;;;3.78;87.64
77118;BME280;66072;50.238;19.228;2024-03-07T08:23:09;99089.93;;;3.84;87.17
77118;BME280;66072;50.238;19.228;2024-03-07T08:25:38;99098.83;;;3.91;86.45
77118;BME280;66072;50.238;19.228;2024-03-07T08:28:07;99098.27;;;3.96;86.17
77118;BME280;66072;50.238;19.228;2024-03-07T08:30:35;99099.65;;;3.95;85.52
77118;BME280;66072;50.238;19.228;2024-03-07T08:33:04;99103.05;;;3.92;85.92
77118;BME280;66072;50.238;19.228;2024-03-07T08:35:31;99102.17;;;3.96;85.00
77118;BME280;66072;50.238;19.228;2024-03-07T08:38:00;99104.99;;;4.02;85.50
77118;BME280;66072;50.238;19.228;2024-03-07T08:40:29;99104.74;;;4.09;85.10
77118;BME280;66072;50.238;19.228;2024-03-07T08:42:57;99107.14;;;4.07;84.93
77118;BME280;66072;50.238;19.228;2024-03-07T08:45:26;99109.58;;;4.00;84.79
77118;BME280;66072;50.238;19.228;2024-03-07T08:47:56;99107.50;;;3.88;83.99
77118;BME280;66072;50.238;19.228;2024-03-07T08:50:27;99110.98;;;3.77;84.03
77118;BME280;66072;50.238;19.228;2024-03-07T08:52:55;99112.54;;;3.75;84.66
77118;BME280;66072;50.238;19.228;2024-03-07T08:55:24;99113.30;;;3.80;84.74
77118;BME280;66072;50.238;19.228;2024-03-07T08:57:53;99109.94;;;3.79;84.39
77118;BME280;66072;50.238;19.228;2024-03-07T09:00:21;99112.18;;;3.74;84.96
77118;BME280;66072;50.238;19.228;2024-03-07T09:02:55;99114.36;;;3.76;85.26
77118;BME280;66072;50.238;19.228;2024-03-07T09:05:24;99116.40;;;3.77;85.45
77118;BME280;66072;50.238;19.228;2024-03-07T09:07:54;99120.13;;;3.76;85.22
77118;BME280;66072;50.238;19.228;2024-03-07T09:10:22;99119.64;;;3.73;85.08
77118;BME280;66072;50.238;19.228;2024-03-07T09:12:51;99118.00;;;3.67;84.95
77118;BME280;66072;50.238;19.228;2024-03-07T09:15:19;99121.59;;;3.62;84.82
77118;BME280;66072;50.238;19.228;2024-03-07T09:17:47;99128.39;;;3.57;84.80
77118;BME280;66072;50.238;19.228;2024-03-07T09:20:15;99127.09;;;3.49;84.75
77118;BME280;66072;50.238;19.228;2024-03-07T09:22:45;99128.83;;;3.44;84.59
77118;BME280;66072;50.238;19.228;2024-03-07T09:25:13;99135.48;;;3.38;84.83
77118;BME280;66072;50.238;19.228;2024-03-07T09:27:41;99135.98;;;3.36;85.27
77118;BME280;66072;50.238;19.228;2024-03-07T09:30:09;99138.17;;;3.37;85.47
77118;BME280;66072;50.238;19.228;2024-03-07T09:32:41;99140.36;;;3.40;85.51
77118;BME280;66072;50.238;19.228;2024-03-07T09:35:10;99146.26;;;3.42;85.74
77118;BME280;66072;50.238;19.228;2024-03-07T09:37:41;99143.03;;;3.42;85.70
77118;BME280;66072;50.238;19.228;2024-03-07T09:40:09;99145.58;;;3.44;85.69
77118;BME280;66072;50.238;19.228;2024-03-07T09:42:48;99143.37;;;3.45;85.73
77118;BME280;66072;50.238;19.228;2024-03-07T09:45:18;99145.05;;;3.46;85.53
77118;BME280;66072;50.238;19.228;2024-03-07T09:47:50;99143.50;;;3.49;85.51
77118;BME280;66072;50.238;19.228;2024-03-07T09:50:20;99146.20;;;3.50;85.01
77118;BME280;66072;50.238;19.228;2024-03-07T09:52:49;99148.92;;;3.50;84.92
77118;BME280;66072;50.238;19.228;2024-03-07T09:55:20;99149.56;;;3.53;85.20
77118;BME280;66072;50.238;19.228;2024-03-07T09:57:48;99151.37;;;3.62;85.56
77118;BME280;66072;50.238;19.228;2024-03-07T10:00:18;99154.35;;;3.67;85.17
77118;BME280;66072;50.238;19.228;2024-03-07T10:02:46;99153.98;;;3.73;85.34
77118;BME280;66072;50.238;19.228;2024-03-07T10:05:15;99154.94;;;3.81;85.42
77118;BME280;66072;50.238;19.228;2024-03-07T10:07:45;99154.92;;;3.83;85.02
77118;BME280;66072;50.238;19.228;2024-03-07T10:10:13;99156.64;;;3.81;85.04
77118;BME280;66072;50.238;19.228;2024-03-07T10:12:41;99157.82;;;3.81;84.64
77118;BME280;66072;50.238;19.228;2024-03-07T10:15:10;99161.39;;;3.77;84.31
77118;BME280;66072;50.238;19.228;2024-03-07T10:17:41;99159.08;;;3.70;84.27
77118;BME280;66072;50.238;19.228;2024-03-07T10:20:18;99155.25;;;3.63;84.65
77118;BME280;66072;50.238;19.228;2024-03-07T10:22:46;99161.35;;;3.60;84.76
77118;BME280;66072;50.238;19.228;2024-03-07T10:25:17;99158.86;;;3.53;85.13
77118;BME280;66072;50.238;19.228;2024-03-07T10:27:46;99159.90;;;3.51;85.48
77118;BME280;66072;50.238;19.228;2024-03-07T10:30:14;99159.05;;;3.51;85.39
77118;BME280;66072;50.238;19.228;2024-03-07T10:32:45;99157.53;;;3.50;85.23
77118;BME280;66072;50.238;19.228;2024-03-07T10:35:13;99161.43;;;3.48;85.40
77118;BME280;66072;50.238;19.228;2024-03-07T10:37:41;99162.48;;;3.44;84.94
77118;BME280;66072;50.238;19.228;2024-03-07T10:40:09;99163.34;;;3.41;85.20
77118;BME280;66072;50.238;19.228;2024-03-07T10:42:38;99159.08;;;3.48;85.54
77118;BME280;66072;50.238;19.228;2024-03-07T10:45:07;99162.04;;;3.58;84.72
77118;BME280;66072;50.238;19.228;2024-03-07T10:47:36;99159.61;;;3.67;84.74
77118;BME280;66072;50.238;19.228;2024-03-07T10:50:28;99164.10;;;3.79;84.04
77118;BME280;66072;50.238;19.228;2024-03-07T10:55:38;99164.24;;;3.81;82.90
77118;BME280;66072;50.238;19.228;2024-03-07T10:58:20;99169.73;;;3.72;83.01
77118;BME280;66072;50.238;19.228;2024-03-07T11:00:56;99170.14;;;3.61;82.93
77118;BME280;66072;50.238;19.228;2024-03-07T11:03:26;99167.34;;;3.51;83.59
77118;BME280;66072;50.238;19.228;2024-03-07T11:05:54;99164.34;;;3.44;83.37
77118;BME280;66072;50.238;19.228;2024-03-07T11:08:22;99161.48;;;3.41;83.23
77118;BME280;66072;50.238;19.228;2024-03-07T11:10:51;99161.16;;;3.40;83.52
77118;BME280;66072;50.238;19.228;2024-03-07T11:13:19;99159.80;;;3.40;83.92
77118;BME280;66072;50.238;19.228;2024-03-07T11:15:48;99159.77;;;3.44;84.45
77118;BME280;66072;50.238;19.228;2024-03-07T11:18:16;99160.94;;;3.47;84.06
77118;BME280;66072;50.238;19.228;2024-03-07T11:20:44;99159.38;;;3.53;84.37
77118;BME280;66072;50.238;19.228;2024-03-07T11:23:25;99157.95;;;3.63;84.60
77118;BME280;66072;50.238;19.228;2024-03-07T11:26:02;99152.43;;;3.75;84.22
77118;BME280;66072;50.238;19.228;2024-03-07T11:28:31;99154.89;;;3.86;83.71
77118;BME280;66072;50.238;19.228;2024-03-07T11:31:27;99151.92;;;3.97;83.48
77118;BME280;66072;50.238;19.228;2024-03-07T11:34:14;99146.69;;;4.14;83.00
77118;BME280;66072;50.238;19.228;2024-03-07T11:36:44;99148.01;;;4.34;82.81
77118;BME280;66072;50.238;19.228;2024-03-07T11:39:44;99151.75;;;4.48;82.40
77118;BME280;66072;50.238;19.228;2024-03-07T11:44:52;99152.73;;;4.67;80.86
77118;BME280;66072;50.238;19.228;2024-03-07T11:47:20;99146.38;;;4.74;81.12
77118;BME280;66072;50.238;19.228;2024-03-07T11:49:48;99145.09;;;4.82;80.87
77118;BME280;66072;50.238;19.228;2024-03-07T11:52:16;99142.95;;;4.92;80.88
77118;BME280;66072;50.238;19.228;2024-03-07T11:54:44;99141.85;;;4.98;80.41
77118;BME280;66072;50.238;19.228;2024-03-07T11:57:15;99143.23;;;4.95;80.15
77118;BME280;66072;50.238;19.228;2024-03-07T11:59:43;99141.92;;;4.93;80.21
77118;BME280;66072;50.238;19.228;2024-03-07T12:02:12;99141.38;;;4.95;80.41
77118;BME280;66072;50.238;19.228;2024-03-07T12:04:40;99143.38;;;4.98;80.14
77118;BME280;66072;50.238;19.228;2024-03-07T12:07:08;99144.58;;;4.97;79.77
77118;BME280;66072;50.238;19.228;2024-03-07T12:09:39;99143.98;;;4.90;79.46
77118;BME280;66072;50.238;19.228;2024-03-07T12:12:07;99145.98;;;4.80;79.80
77118;BME280;66072;50.238;19.228;2024-03-07T12:14:35;99144.70;;;4.72;80.15
77118;BME280;66072;50.238;19.228;2024-03-07T12:17:04;99147.31;;;4.67;80.22
77118;BME280;66072;50.238;19.228;2024-03-07T12:19:32;99146.06;;;4.56;80.02
77118;BME280;66072;50.238;19.228;2024-03-07T12:22:03;99149.41;;;4.45;80.22
77118;BME280;66072;50.238;19.228;2024-03-07T12:24:35;99147.50;;;4.35;80.54
77118;BME280;66072;50.238;19.228;2024-03-07T12:27:09;99145.88;;;4.27;81.02
77118;BME280;66072;50.238;19.228;2024-03-07T12:29:39;99149.15;;;4.21;80.85
77118;BME280;66072;50.238;19.228;2024-03-07T12:32:07;99147.70;;;4.14;80.84
77118;BME280;66072;50.238;19.228;2024-03-07T12:34:36;99149.27;;;4.08;80.93
77118;BME280;66072;50.238;19.228;2024-03-07T12:37:04;99148.65;;;4.02;81.16
77118;BME280;66072;50.238;19.228;2024-03-07T12:39:33;99150.39;;;3.97;81.51
77118;BME280;66072;50.238;19.228;2024-03-07T12:42:04;99151.95;;;3.94;81.84
77118;BME280;66072;50.238;19.228;2024-03-07T12:44:40;99150.27;;;3.92;81.54
77118;BME280;66072;50.238;19.228;2024-03-07T12:47:10;99147.23;;;3.90;81.98
77118;BME280;66072;50.238;19.228;2024-03-07T12:49:39;99150.65;;;3.89;82.18
77118;BME280;66072;50.238;19.228;2024-03-07T12:52:06;99150.77;;;3.92;82.34
77118;BME280;66072;50.238;19.228;2024-03-07T12:54:37;99149.59;;;3.94;82.03
77118;BME280;66072;50.238;19.228;2024-03-07T12:57:05;99150.59;;;3.93;81.65
77118;BME280;66072;50.238;19.228;2024-03-07T12:59:33;99148.25;;;3.90;81.50
77118;BME280;66072;50.238;19.228;2024-03-07T13:02:01;99148.95;;;3.88;81.32
77118;BME280;66072;50.238;19.228;2024-03-07T13:04:29;99149.37;;;3.79;80.85
77118;BME280;66072;50.238;19.228;2024-03-07T13:06:56;99153.97;;;3.75;81.47
77118;BME280;66072;50.238;19.228;2024-03-07T13:09:24;99153.64;;;3.74;81.84
77118;BME280;66072;50.238;19.228;2024-03-07T13:11:53;99152.42;;;3.78;81.86